createdAt,value
2019-05-28T00:00:16.650Z,16.75
2019-05-28T00:02:42.587Z,16.69
2019-05-28T00:05:08.511Z,16.81
2019-05-28T00:07:34.431Z,16.81
2019-05-28T00:10:00.281Z,16.62
2019-05-28T00:12:26.108Z,16.69
2019-05-28T00:14:51.943Z,16.62
2019-05-28T00:17:17.787Z,16.62
2019-05-28T00:19:43.667Z,16.69
2019-05-28T00:22:09.526Z,16.56
2019-05-28T00:24:35.504Z,16.69
2019-05-28T00:27:01.459Z,16.62
2019-05-28T00:29:27.306Z,16.75
2019-05-28T00:31:53.148Z,16.50
2019-05-28T00:34:19.399Z,16.37
2019-05-28T00:36:45.383Z,16.37
2019-05-28T00:39:11.400Z,16.50
2019-05-28T00:41:37.403Z,16.44
2019-05-28T00:44:03.435Z,16.31
2019-05-28T00:46:29.397Z,16.25
2019-05-28T00:48:55.321Z,16.31
2019-05-28T00:51:21.166Z,16.12
2019-05-28T00:53:47.014Z,16.19
2019-05-28T00:56:13.167Z,16.12
2019-05-28T00:58:39.165Z,16.12
2019-05-28T01:01:05.509Z,16.06
2019-05-28T01:03:31.329Z,16.12
2019-05-28T01:05:57.169Z,16.19
2019-05-28T01:08:23.032Z,16.06
2019-05-28T01:10:48.987Z,15.69
2019-05-28T01:13:14.829Z,15.75
2019-05-28T01:15:40.886Z,15.75
2019-05-28T01:18:06.823Z,15.69
2019-05-28T01:20:34.621Z,15.56
2019-05-28T01:23:00.515Z,15.50
2019-05-28T01:25:26.521Z,15.75
2019-05-28T01:27:52.515Z,15.50
2019-05-28T01:30:18.423Z,15.56
2019-05-28T01:32:44.295Z,15.44
2019-05-28T01:35:10.419Z,15.50
2019-05-28T01:37:36.344Z,15.56
2019-05-28T01:40:04.404Z,15.56
2019-05-28T01:42:30.277Z,15.31
2019-05-28T01:44:56.989Z,15.31
2019-05-28T01:47:22.902Z,15.44
2019-05-28T01:49:48.843Z,15.31
2019-05-28T01:52:14.790Z,15.19
2019-05-28T01:54:40.748Z,15.25
2019-05-28T01:57:06.588Z,15.56
2019-05-28T01:59:32.450Z,15.31
2019-05-28T02:01:58.323Z,15.19
2019-05-28T02:04:24.241Z,15.44
2019-05-28T02:06:50.103Z,15.38
2019-05-28T02:09:16.020Z,15.31
2019-05-28T02:11:41.977Z,15.25
2019-05-28T02:14:07.818Z,15.25
2019-05-28T02:16:33.661Z,15.00
2019-05-28T02:18:59.493Z,14.94
2019-05-28T02:21:25.326Z,14.87
2019-05-28T02:23:51.168Z,15.00
2019-05-28T02:26:17.044Z,14.94
2019-05-28T02:28:42.912Z,14.81
2019-05-28T02:31:08.798Z,14.94
2019-05-28T02:33:34.649Z,15.13
2019-05-28T02:36:00.587Z,14.94
2019-05-28T02:38:26.448Z,14.75
2019-05-28T02:40:52.306Z,14.63
2019-05-28T02:43:18.278Z,14.63
2019-05-28T02:45:44.146Z,14.63
2019-05-28T02:48:09.974Z,14.56
2019-05-28T02:50:54.430Z,14.75
2019-05-28T02:53:20.382Z,14.69
2019-05-28T02:55:59.522Z,14.75
2019-05-28T02:58:33.065Z,14.87
2019-05-28T03:00:59.838Z,14.81
2019-05-28T03:03:31.088Z,14.50
2019-05-28T03:05:57.106Z,14.69
2019-05-28T03:08:22.952Z,14.69
2019-05-28T03:11:04.740Z,14.81
2019-05-28T03:13:16.854Z,14.75
2019-05-28T03:15:45.087Z,14.75
2019-05-28T03:18:11.811Z,14.63
2019-05-28T03:20:38.874Z,14.63
2019-05-28T03:23:05.117Z,14.63
2019-05-28T03:25:32.474Z,14.63
2019-05-28T03:27:58.393Z,14.56
2019-05-28T03:30:24.243Z,14.50
2019-05-28T03:32:50.270Z,14.69
2019-05-28T03:35:16.236Z,14.38
2019-05-28T03:37:42.693Z,14.56
2019-05-28T03:40:10.668Z,14.31
2019-05-28T03:42:36.498Z,14.44
2019-05-28T03:45:04.815Z,14.50
2019-05-28T03:47:30.661Z,14.31
2019-05-28T03:49:56.769Z,14.44
2019-05-28T03:52:22.618Z,14.44
2019-05-28T03:54:48.488Z,14.44
2019-05-28T03:57:14.387Z,14.44
2019-05-28T03:59:40.240Z,14.44
2019-05-28T04:02:20.608Z,14.56
2019-05-28T04:04:33.891Z,14.50
2019-05-28T04:06:59.777Z,14.44
2019-05-28T04:09:25.619Z,14.50
2019-05-28T04:11:51.582Z,14.38
2019-05-28T04:14:17.614Z,14.31
2019-05-28T04:16:43.802Z,14.31
2019-05-28T04:19:10.039Z,14.56
2019-05-28T04:21:35.879Z,14.50
2019-05-28T04:24:01.755Z,14.44
2019-05-28T04:26:43.789Z,14.50
2019-05-28T04:29:09.711Z,14.56
2019-05-28T04:31:35.607Z,14.50
2019-05-28T04:34:01.455Z,14.63
2019-05-28T04:36:27.370Z,14.75
2019-05-28T04:38:53.537Z,14.50
2019-05-28T04:41:19.386Z,14.50
2019-05-28T04:43:45.443Z,14.50
2019-05-28T04:46:11.359Z,14.63
2019-05-28T04:48:37.215Z,14.63
2019-05-28T04:51:03.114Z,14.63
2019-05-28T04:53:29.111Z,14.75
2019-05-28T04:55:55.287Z,14.81
2019-05-28T04:58:21.232Z,14.81
2019-05-28T05:00:47.188Z,14.56
2019-05-28T05:03:13.647Z,14.63
2019-05-28T05:05:39.555Z,14.56
2019-05-28T05:08:05.859Z,14.87
2019-05-28T05:10:31.797Z,14.69
2019-05-28T05:12:57.750Z,14.94
2019-05-28T05:15:23.618Z,14.81
2019-05-28T05:17:49.833Z,14.94
2019-05-28T05:20:16.074Z,14.94
2019-05-28T05:22:41.955Z,15.06
2019-05-28T05:25:08.130Z,15.00
2019-05-28T05:27:34.622Z,15.13
2019-05-28T05:30:00.585Z,15.44
2019-05-28T05:32:33.282Z,15.44
2019-05-28T05:34:59.423Z,15.56
2019-05-28T05:37:25.552Z,15.44
2019-05-28T05:39:51.594Z,15.50
2019-05-28T05:42:17.706Z,15.63
2019-05-28T05:44:43.745Z,15.63
2019-05-28T05:47:10.025Z,15.69
2019-05-28T05:49:35.976Z,15.69
2019-05-28T05:52:02.065Z,15.81
2019-05-28T05:54:28.423Z,15.88
2019-05-28T05:56:54.429Z,15.75
2019-05-28T05:59:20.450Z,16.12
2019-05-28T06:01:46.783Z,16.19
2019-05-28T06:04:12.707Z,16.19
2019-05-28T06:06:38.590Z,16.06
2019-05-28T06:09:05.815Z,16.06
2019-05-28T06:11:31.821Z,16.25
2019-05-28T06:13:58.099Z,16.00
2019-05-28T06:16:24.021Z,16.12
2019-05-28T06:18:50.054Z,16.12
2019-05-28T06:21:18.935Z,16.25
2019-05-28T06:23:43.910Z,16.31
2019-05-28T06:26:09.890Z,16.44
2019-05-28T06:28:35.900Z,16.50
2019-05-28T06:31:01.889Z,16.69
2019-05-28T06:33:27.880Z,16.75
2019-05-28T06:35:53.854Z,16.75
2019-05-28T06:38:19.964Z,16.75
2019-05-28T06:40:46.118Z,16.81
2019-05-28T06:43:12.131Z,16.81
2019-05-28T06:45:38.295Z,17.00
2019-05-28T06:48:04.262Z,17.12
2019-05-28T06:50:31.416Z,16.94
2019-05-28T06:52:58.788Z,17.00
2019-05-28T06:55:24.709Z,16.94
2019-05-28T06:57:50.678Z,17.00
2019-05-28T07:00:17.066Z,17.06
2019-05-28T07:02:43.035Z,17.06
2019-05-28T07:05:09.114Z,17.06
2019-05-28T07:07:35.246Z,17.00
2019-05-28T07:10:01.715Z,17.00
2019-05-28T07:12:27.765Z,17.00
2019-05-28T07:14:53.790Z,17.31
2019-05-28T07:17:19.844Z,17.31
2019-05-28T07:19:45.954Z,17.19
2019-05-28T07:22:11.808Z,17.37
2019-05-28T07:24:37.703Z,17.12
2019-05-28T07:27:03.739Z,17.31
2019-05-28T07:29:30.093Z,17.31
2019-05-28T07:31:56.056Z,17.44
2019-05-28T07:34:30.896Z,17.44
2019-05-28T07:36:51.735Z,17.56
2019-05-28T07:39:17.783Z,17.50
2019-05-28T07:41:44.884Z,17.37
2019-05-28T07:44:10.818Z,17.31
2019-05-28T07:46:36.804Z,17.56
2019-05-28T07:49:02.795Z,17.81
2019-05-28T07:51:28.992Z,17.56
2019-05-28T07:53:55.013Z,17.56
2019-05-28T07:56:20.961Z,17.44
2019-05-28T07:58:46.978Z,17.62
2019-05-28T08:01:13.018Z,17.62
2019-05-28T08:03:39.135Z,17.62
2019-05-28T08:06:05.178Z,17.81
2019-05-28T08:08:31.056Z,17.81
2019-05-28T08:10:57.082Z,17.87
2019-05-28T08:13:39.194Z,17.87
2019-05-28T08:15:50.917Z,18.19
2019-05-28T08:18:16.869Z,18.06
2019-05-28T08:20:43.539Z,18.12
2019-05-28T08:23:09.558Z,18.00
2019-05-28T08:25:46.912Z,17.87
2019-05-28T08:28:18.773Z,18.12
2019-05-28T08:30:31.875Z,18.19
2019-05-28T08:32:57.964Z,18.12
2019-05-28T08:35:24.439Z,18.00
2019-05-28T08:37:50.465Z,18.06
2019-05-28T08:40:18.531Z,18.00
2019-05-28T08:42:44.505Z,18.00
2019-05-28T08:45:11.100Z,18.12
2019-05-28T08:47:37.143Z,18.00
2019-05-28T08:50:06.419Z,18.06
2019-05-28T08:52:32.475Z,18.19
2019-05-28T08:54:58.487Z,18.06
2019-05-28T08:57:24.527Z,18.00
2019-05-28T08:59:51.235Z,18.00
2019-05-28T09:02:27.875Z,18.00
2019-05-28T09:04:45.061Z,17.94
2019-05-28T09:07:11.029Z,18.00
2019-05-28T09:09:37.141Z,18.06
2019-05-28T09:12:03.221Z,17.81
2019-05-28T09:14:53.894Z,17.81
2019-05-28T09:17:00.491Z,17.56
2019-05-28T09:19:26.524Z,17.69
2019-05-28T09:21:52.489Z,17.87
2019-05-28T09:24:18.482Z,18.00
2019-05-28T09:26:44.432Z,18.19
2019-05-28T09:29:11.924Z,18.12
2019-05-28T09:31:37.922Z,18.25
2019-05-28T09:34:03.921Z,18.12
2019-05-28T09:36:30.443Z,18.25
2019-05-28T09:38:56.705Z,17.81
2019-05-28T09:41:22.929Z,17.75
2019-05-28T09:43:48.922Z,18.06
2019-05-28T09:46:14.908Z,18.19
2019-05-28T09:48:41.375Z,17.94
2019-05-28T09:51:07.296Z,17.81
2019-05-28T09:53:35.043Z,17.87
2019-05-28T09:56:01.102Z,17.87
2019-05-28T09:58:28.485Z,18.19
2019-05-28T10:00:58.659Z,18.25
2019-05-28T10:03:22.805Z,18.31
2019-05-28T10:06:01.759Z,17.81
2019-05-28T10:08:17.111Z,18.12
2019-05-28T10:10:43.677Z,18.44
2019-05-28T10:13:09.633Z,18.31
2019-05-28T10:15:35.641Z,18.37
2019-05-28T10:18:01.680Z,18.50
2019-05-28T10:20:27.888Z,18.44
2019-05-28T10:22:53.885Z,18.56
2019-05-28T10:25:20.019Z,18.56
2019-05-28T10:28:00.431Z,18.87
2019-05-28T10:30:20.252Z,18.81
2019-05-28T10:32:48.803Z,18.94
2019-05-28T10:35:15.206Z,19.00
2019-05-28T10:37:44.272Z,19.12
2019-05-28T10:40:13.881Z,19.00
2019-05-28T10:42:39.899Z,18.94
2019-05-28T10:45:08.485Z,19.12
2019-05-28T10:47:34.497Z,19.06
2019-05-28T10:52:32.879Z,19.06
2019-05-28T10:55:02.794Z,19.06
2019-05-28T10:57:28.520Z,19.12
2019-05-28T10:59:54.538Z,19.31
2019-05-28T11:02:20.549Z,19.31
2019-05-28T11:04:46.564Z,19.19
2019-05-28T11:07:12.492Z,19.06
2019-05-28T11:09:38.356Z,18.87
2019-05-28T11:12:05.205Z,18.94
2019-05-28T11:14:31.060Z,18.94
2019-05-28T11:16:57.188Z,19.25
2019-05-28T11:19:23.228Z,19.25
2019-05-28T11:21:49.124Z,18.87
2019-05-28T11:24:15.088Z,19.00
2019-05-28T11:26:41.068Z,19.00
2019-05-28T11:29:07.064Z,19.00
2019-05-28T11:31:32.977Z,19.19
2019-05-28T11:33:58.977Z,19.06
2019-05-28T11:36:25.156Z,19.00
2019-05-28T11:38:51.605Z,19.06
2019-05-28T11:41:17.512Z,19.19
2019-05-28T11:43:43.504Z,19.44
2019-05-28T11:46:09.722Z,19.37
2019-05-28T11:48:35.833Z,19.56
2019-05-28T11:51:01.806Z,19.50
2019-05-28T11:53:29.804Z,19.50
2019-05-28T11:55:55.814Z,19.56
2019-05-28T11:58:21.859Z,19.44
2019-05-28T12:00:48.670Z,19.37
2019-05-28T12:03:18.644Z,19.44
2019-05-28T12:05:45.153Z,19.56
2019-05-28T12:08:13.435Z,19.44
2019-05-28T12:10:42.235Z,19.44
2019-05-28T12:13:10.966Z,19.62
2019-05-28T12:15:37.105Z,19.50
2019-05-28T12:18:03.126Z,19.44
2019-05-28T12:20:32.225Z,19.56
2019-05-28T12:23:10.269Z,19.44
2019-05-28T12:25:26.315Z,19.12
2019-05-28T12:27:52.283Z,19.12
2019-05-28T12:30:18.952Z,19.31
2019-05-28T12:32:44.988Z,18.62
2019-05-28T12:35:26.379Z,19.25
2019-05-28T12:37:47.943Z,19.19
2019-05-28T12:40:07.464Z,19.19
2019-05-28T12:42:33.420Z,19.19
2019-05-28T12:45:09.548Z,19.44
2019-05-28T12:47:27.325Z,19.25
2019-05-28T12:49:53.631Z,19.56
2019-05-28T12:52:19.767Z,19.56
2019-05-28T12:54:45.720Z,19.69
2019-05-28T12:57:11.599Z,19.25
2019-05-28T12:59:37.611Z,19.56
2019-05-28T13:02:03.587Z,19.44
2019-05-28T13:04:29.519Z,19.62
2019-05-28T13:06:55.371Z,19.44
2019-05-28T13:09:21.330Z,19.31
2019-05-28T13:11:47.301Z,19.25
2019-05-28T13:14:13.250Z,19.19
2019-05-28T13:16:39.427Z,19.56
2019-05-28T13:19:05.300Z,19.06
2019-05-28T13:21:31.153Z,19.44
2019-05-28T13:23:57.025Z,19.56
2019-05-28T13:26:22.965Z,19.50
2019-05-28T13:28:48.834Z,19.44
2019-05-28T13:31:14.774Z,19.69
2019-05-28T13:33:40.673Z,19.69
2019-05-28T13:36:06.581Z,19.31
2019-05-28T13:38:32.538Z,19.44
2019-05-28T13:41:00.369Z,19.56
2019-05-28T13:43:26.500Z,19.50
2019-05-28T13:45:52.399Z,19.62
2019-05-28T13:48:18.251Z,19.62
2019-05-28T13:50:44.205Z,19.62
2019-05-28T13:53:10.367Z,19.44
2019-05-28T13:55:36.209Z,19.62
2019-05-28T13:58:02.041Z,19.56
2019-05-28T14:00:28.031Z,19.62
2019-05-28T14:02:53.880Z,19.50
2019-05-28T14:05:20.072Z,19.62
2019-05-28T14:07:46.065Z,19.94
2019-05-28T14:10:12.417Z,19.75
2019-05-28T14:12:38.410Z,19.87
2019-05-28T14:15:07.177Z,20.00
2019-05-28T14:17:35.697Z,20.00
2019-05-28T14:20:04.205Z,19.87
2019-05-28T14:22:33.859Z,19.75
2019-05-28T14:25:07.249Z,19.94
2019-05-28T14:27:33.610Z,19.50
2019-05-28T14:29:59.589Z,19.25
2019-05-28T14:32:25.455Z,19.31
2019-05-28T14:34:52.484Z,19.25
2019-05-28T14:37:18.590Z,19.19
2019-05-28T14:39:44.504Z,19.44
2019-05-28T14:42:10.365Z,19.25
2019-05-28T14:44:36.207Z,19.31
2019-05-28T14:47:02.487Z,19.56
2019-05-28T14:49:28.402Z,19.50
2019-05-28T14:51:54.744Z,19.50
2019-05-28T14:54:20.702Z,19.37
2019-05-28T14:56:46.676Z,20.00
2019-05-28T14:59:12.644Z,19.94
2019-05-28T15:01:38.627Z,20.06
2019-05-28T15:04:04.668Z,20.37
2019-05-28T15:06:30.838Z,19.87
2019-05-28T15:08:56.812Z,19.44
2019-05-28T15:11:22.771Z,20.00
2019-05-28T15:13:48.753Z,19.50
2019-05-28T15:16:14.761Z,19.44
2019-05-28T15:18:40.669Z,19.44
2019-05-28T15:21:06.613Z,19.37
2019-05-28T15:23:32.647Z,18.94
2019-05-28T15:25:58.578Z,19.62
2019-05-28T15:28:24.581Z,19.12
2019-05-28T15:30:50.450Z,19.50
2019-05-28T15:33:16.352Z,19.62
2019-05-28T15:35:42.311Z,19.62
2019-05-28T15:38:08.270Z,19.75
2019-05-28T15:40:34.214Z,19.12
2019-05-28T15:43:06.173Z,20.25
2019-05-28T15:45:27.812Z,20.00
2019-05-28T15:47:53.822Z,19.87
2019-05-28T15:50:19.817Z,20.19
2019-05-28T15:52:45.888Z,20.19
2019-05-28T15:55:14.145Z,20.19
2019-05-28T15:57:40.193Z,20.19
2019-05-28T16:00:07.257Z,19.69
2019-05-28T16:02:33.758Z,19.75
2019-05-28T16:04:59.715Z,19.37
2019-05-28T16:07:25.584Z,18.75
2019-05-28T16:09:56.254Z,18.75
2019-05-28T16:12:19.256Z,18.94
2019-05-28T16:14:51.741Z,19.44
2019-05-28T16:17:17.698Z,19.44
2019-05-28T16:19:43.689Z,19.69
2019-05-28T16:22:09.524Z,19.75
2019-05-28T16:24:35.423Z,20.12
2019-05-28T16:27:01.386Z,19.75
2019-05-28T16:29:27.468Z,20.12
2019-05-28T16:31:55.056Z,19.75
2019-05-28T16:34:21.058Z,19.50
2019-05-28T16:36:47.059Z,19.25
2019-05-28T16:39:13.108Z,19.25
2019-05-28T16:41:39.094Z,19.25
2019-05-28T16:44:05.668Z,19.25
2019-05-28T16:46:31.590Z,19.37
2019-05-28T16:48:57.436Z,19.25
2019-05-28T16:51:23.687Z,19.56
2019-05-28T16:53:50.230Z,19.12
2019-05-28T16:56:16.196Z,19.31
2019-05-28T16:58:42.094Z,19.19
2019-05-28T17:01:21.923Z,18.62
2019-05-28T17:03:35.989Z,18.56
2019-05-28T17:06:01.931Z,18.87
2019-05-28T17:08:28.355Z,18.94
2019-05-28T17:10:54.311Z,19.12
2019-05-28T17:13:20.285Z,18.56
2019-05-28T17:15:46.227Z,17.75
2019-05-28T17:18:12.097Z,17.62
2019-05-28T17:20:37.945Z,17.56
2019-05-28T17:23:04.171Z,17.56
2019-05-28T17:25:30.013Z,17.62
2019-05-28T17:27:55.850Z,17.50
2019-05-28T17:30:24.280Z,18.00
2019-05-28T17:32:49.691Z,18.25
2019-05-28T17:35:15.754Z,18.44
2019-05-28T17:37:41.919Z,18.31
2019-05-28T17:40:08.077Z,19.06
2019-05-28T17:42:34.489Z,19.31
2019-05-28T17:45:00.509Z,19.00
2019-05-28T17:47:26.464Z,18.44
2019-05-28T17:49:52.491Z,17.56
2019-05-28T17:52:18.399Z,17.31
2019-05-28T17:54:44.484Z,17.81
2019-05-28T17:57:10.464Z,17.81
2019-05-28T17:59:37.323Z,18.00
2019-05-28T18:02:03.339Z,17.69
2019-05-28T18:04:29.316Z,18.06
2019-05-28T18:06:55.157Z,18.31
2019-05-28T18:09:21.409Z,18.56
2019-05-28T18:11:47.453Z,18.56
2019-05-28T18:14:13.575Z,18.44
2019-05-28T18:16:39.548Z,18.56
2019-05-28T18:19:05.527Z,18.31
2019-05-28T18:21:44.521Z,18.19
2019-05-28T18:24:10.536Z,17.69
2019-05-28T18:26:36.488Z,17.62
2019-05-28T18:29:04.643Z,17.12
2019-05-28T18:31:36.685Z,17.81
2019-05-28T18:34:02.722Z,17.94
2019-05-28T18:36:28.689Z,18.00
2019-05-28T18:38:55.046Z,18.12
2019-05-28T18:41:22.224Z,18.00
2019-05-28T18:43:48.283Z,17.87
2019-05-28T18:46:15.514Z,17.25
2019-05-28T18:48:42.359Z,16.69
2019-05-28T18:51:08.405Z,16.69
2019-05-28T18:53:36.889Z,16.44
2019-05-28T18:56:16.509Z,16.19
2019-05-28T18:58:34.640Z,16.06
2019-05-28T19:00:58.936Z,15.94
2019-05-28T19:03:24.865Z,16.00
2019-05-28T19:05:50.751Z,15.94
2019-05-28T19:08:16.931Z,16.06
2019-05-28T19:10:43.035Z,15.88
2019-05-28T19:13:09.219Z,15.88
2019-05-28T19:15:35.087Z,15.63
2019-05-28T19:18:00.920Z,15.63
2019-05-28T19:20:26.802Z,15.44
2019-05-28T19:22:52.919Z,15.31
2019-05-28T19:25:18.979Z,15.31
2019-05-28T19:27:44.807Z,15.56
2019-05-28T19:30:12.552Z,15.63
2019-05-28T19:32:38.371Z,15.50
2019-05-28T19:35:07.979Z,15.38
2019-05-28T19:37:34.814Z,15.13
2019-05-28T19:40:01.375Z,15.19
2019-05-28T19:42:27.296Z,14.94
2019-05-28T19:44:53.234Z,15.00
2019-05-28T19:47:19.088Z,14.81
2019-05-28T19:49:44.939Z,14.75
2019-05-28T19:52:10.863Z,14.87
2019-05-28T19:54:36.740Z,14.63
2019-05-28T19:57:02.675Z,14.63
2019-05-28T19:59:28.584Z,14.56
2019-05-28T20:01:54.488Z,14.50
2019-05-28T20:04:20.358Z,14.31
2019-05-28T20:06:46.182Z,14.63
2019-05-28T20:09:12.007Z,14.50
2019-05-28T20:11:37.852Z,14.38
2019-05-28T20:14:05.640Z,14.13
2019-05-28T20:16:31.460Z,14.38
2019-05-28T20:18:57.316Z,14.13
2019-05-28T20:21:23.262Z,14.25
2019-05-28T20:23:50.085Z,14.19
2019-05-28T20:26:16.162Z,14.13
2019-05-28T20:28:42.009Z,14.06
2019-05-28T20:31:08.949Z,13.94
2019-05-28T20:33:35.690Z,13.88
2019-05-28T20:36:01.956Z,14.00
2019-05-28T20:38:28.013Z,13.88
2019-05-28T20:40:53.955Z,14.06
2019-05-28T20:43:19.784Z,14.06
2019-05-28T20:45:45.654Z,13.88
2019-05-28T20:48:11.484Z,13.69
2019-05-28T20:50:37.349Z,13.69
2019-05-28T20:53:03.658Z,13.94
2019-05-28T20:55:29.529Z,13.56
2019-05-28T20:57:55.477Z,13.69
2019-05-28T21:00:21.340Z,13.62
2019-05-28T21:02:47.558Z,13.56
2019-05-28T21:05:13.710Z,13.69
2019-05-28T21:07:39.549Z,13.44
2019-05-28T21:10:06.701Z,13.75
2019-05-28T21:12:43.390Z,13.44
2019-05-28T21:15:00.346Z,13.75
2019-05-28T21:17:26.201Z,13.31
2019-05-28T21:19:53.199Z,13.44
2019-05-28T21:22:26.839Z,13.44
2019-05-28T21:24:46.957Z,13.13
2019-05-28T21:27:12.816Z,13.38
2019-05-28T21:29:38.628Z,13.31
2019-05-28T21:32:04.497Z,13.31
2019-05-28T21:34:30.346Z,13.25
2019-05-28T21:36:57.101Z,13.44
2019-05-28T21:39:23.039Z,13.38
2019-05-28T21:41:48.874Z,13.44
2019-05-28T21:44:15.698Z,13.50
2019-05-28T21:46:41.590Z,13.31
2019-05-28T21:49:07.420Z,13.50
2019-05-28T21:51:33.270Z,13.44
2019-05-28T21:53:59.130Z,13.31
2019-05-28T21:56:24.986Z,13.00
2019-05-28T21:58:50.830Z,13.38
2019-05-28T22:01:20.502Z,13.50
2019-05-28T22:03:46.453Z,13.25
2019-05-28T22:06:12.388Z,13.06
2019-05-28T22:08:38.219Z,13.25
2019-05-28T22:11:05.443Z,13.31
2019-05-28T22:13:31.283Z,13.19
2019-05-28T22:15:58.053Z,13.25
2019-05-28T22:18:23.949Z,13.06
2019-05-28T22:20:49.914Z,13.00
2019-05-28T22:23:15.867Z,13.25
2019-05-28T22:25:41.790Z,13.19
2019-05-28T22:28:07.616Z,13.19
2019-05-28T22:30:33.475Z,13.25
2019-05-28T22:33:00.014Z,13.13
2019-05-28T22:35:25.966Z,13.06
2019-05-28T22:37:51.897Z,13.00
2019-05-28T22:40:19.419Z,13.06
2019-05-28T22:42:45.257Z,13.13
2019-05-28T22:45:11.194Z,13.31
2019-05-28T22:47:37.027Z,13.31
2019-05-28T22:50:19.605Z,13.19
2019-05-28T22:52:34.308Z,13.19
2019-05-28T22:55:00.182Z,13.13
2019-05-28T22:57:26.028Z,13.19
2019-05-28T22:59:51.856Z,13.06
2019-05-28T23:02:17.715Z,13.06
2019-05-28T23:04:43.553Z,13.13
2019-05-28T23:07:09.524Z,13.00
2019-05-28T23:09:35.504Z,13.13
2019-05-28T23:12:04.132Z,12.94
2019-05-28T23:14:30.057Z,13.06
2019-05-28T23:16:55.909Z,13.13
2019-05-28T23:19:21.735Z,13.19
2019-05-28T23:21:47.589Z,13.06
2019-05-28T23:24:13.431Z,12.94
2019-05-28T23:26:39.373Z,13.06
2019-05-28T23:29:05.814Z,12.75
2019-05-28T23:31:31.848Z,12.88
2019-05-28T23:33:57.695Z,12.75
2019-05-28T23:36:23.533Z,12.75
2019-05-28T23:38:49.367Z,12.81
2019-05-28T23:41:15.327Z,12.81
2019-05-28T23:43:41.157Z,12.75
2019-05-28T23:46:09.970Z,12.81
2019-05-28T23:48:36.101Z,12.75
2019-05-28T23:51:02.032Z,12.56
2019-05-28T23:53:27.856Z,12.63
2019-05-28T23:55:53.702Z,12.56
2019-05-28T23:58:19.545Z,12.44
